CheckWX is a tool to help pilots better visualize weather data.  It is not intended as a substitute for an official pre-flight weather briefing.

17:48:22 UTC

KESF METAR
Esler Regional Airport
Alexandria, Louisiana, USA
Current

55 mins ago

KESF 211653Z AUTO 23005KT 10SM FEW048 SCT100 BKN120 31/24 A3000 RMK AO2 SLP157 T03060239
Observed
Jul-21 @ 16:53 UTC
Wind
  • 230° at 5 KTS
Visibility
10 SM
Flight Rules
VFR
Cloud Levels
  • Few at 4,800' AGL
  • Scattered at 10,000' AGL
  • Broken at 12,000' AGL
Temperature
31°C / 88°F
Dewpoint
24°C / 75°F
Heat Index
37°C / 98°F
Humidity
66%
Altimeter
30" Hg
Pressure
1015.92 hPa
Previous

2 hours ago

KESF 211553Z AUTO 20003KT 10SM SCT018 SCT035 BKN047 30/26 A3001 RMK AO2 SLP160 T03000256
Observed
Jul-21 @ 15:53 UTC
Wind
  • 200° at 3 KTS
Visibility
10 SM
Flight Rules
VFR
Cloud Levels
  • Scattered at 1,800' AGL
  • Scattered at 3,500' AGL
  • Broken at 4,700' AGL
Temperature
30°C / 86°F
Dewpoint
26°C / 79°F
Heat Index
37°C / 99°F
Humidity
79%
Altimeter
30.01" Hg
Pressure
1016.22 hPa
Previous

2 hours ago

KESF 211541Z AUTO VRB03KT 10SM BKN016 29/25 A3002 RMK AO2 T02940250
Observed
Jul-21 @ 15:41 UTC
Wind
  • Variable at 3 KTS
Visibility
10 SM
Flight Rules
MVFR
Cloud Levels
  • Broken at 1,600' AGL
Temperature
29°C / 84°F
Dewpoint
25°C / 77°F
Heat Index
34°C / 94°F
Humidity
79%
Altimeter
30.02" Hg
Pressure
1016.62 hPa